Time;durP1;ratioP1;P1;durP2;ratioP2;P2;SDS_P1;SDS_P2;PMS_P1;PMS_P2;Temp;Humidity;BMP_temperature;BMP_pressure;BME280_temperature;BME280_humidity;BME280_pressure;Samples;Min_cycle;Max_cycle;Signal;HPM_P1;HPM_P2
2022/01/01 00:00:48;;;;;;;;;;;11.50;99.90;;;;;;4972716;28;19927;-79
2022/01/01 00:03:14;;;;;;;;;;;11.70;99.90;;;;;;4972914;29;19931;-79
2022/01/01 00:05:41;;;;;;;;;;;11.70;99.90;;;;;;4970021;28;19926;-80
2022/01/01 00:08:08;;;;;;;;;;;11.80;99.90;;;;;;4962910;28;19970;-80
2022/01/01 00:10:35;;;;;;;;;;;11.70;99.90;;;;;;4963802;28;19937;-80
2022/01/01 00:13:02;;;;;;;;;;;11.70;99.90;;;;;;4969130;29;20277;-81
2022/01/01 00:15:30;;;;;;;;;;;11.70;99.90;;;;;;4970929;28;19927;-79
2022/01/01 00:17:57;;;;;;;;;;;11.80;99.90;;;;;;4968906;28;20377;-80
2022/01/01 00:20:24;;;;;;;;;;;11.70;99.90;;;;;;4962227;28;19983;-81
2022/01/01 00:22:50;;;;;;;;;;;11.70;99.90;;;;;;4962478;29;20372;-80
2022/01/01 00:25:17;;;;;;;;;;;11.70;99.90;;;;;;4963905;28;19934;-80
2022/01/01 00:27:44;;;;;;;;;;;11.70;99.90;;;;;;4961283;28;19930;-79
2022/01/01 00:30:11;;;;;;;;;;;11.70;99.90;;;;;;4962009;28;19973;-80
2022/01/01 00:32:39;;;;;;;;;;;11.70;99.90;;;;;;4967203;29;19927;-80
2022/01/01 00:35:06;;;;;;;;;;;11.70;99.90;;;;;;4970922;29;19927;-80
2022/01/01 00:37:32;;;;;;;;;;;11.70;99.90;;;;;;4966200;28;19927;-79
2022/01/01 00:39:59;;;;;;;;;;;11.70;99.90;;;;;;4962856;28;19927;-80
2022/01/01 00:42:25;;;;;;;;;;;11.70;99.90;;;;;;4962906;28;19926;-80
2022/01/01 00:44:52;;;;;;;;;;;11.70;99.90;;;;;;4962499;29;20332;-81
2022/01/01 00:47:18;;;;;;;;;;;11.70;99.90;;;;;;4962504;28;19973;-81
2022/01/01 00:49:46;;;;;;;;;;;11.70;99.90;;;;;;4961870;28;19965;-80
2022/01/01 00:52:13;;;;;;;;;;;11.70;99.90;;;;;;4961310;29;19970;-81
2022/01/01 00:54:41;;;;;;;;;;;11.80;99.90;;;;;;4961220;29;19930;-81
2022/01/01 00:57:07;;;;;;;;;;;11.80;99.90;;;;;;4961747;29;19970;-81
2022/01/01 00:59:34;;;;;;;;;;;11.70;99.90;;;;;;4961673;28;19931;-81
2022/01/01 01:02:00;;;;;;;;;;;11.80;99.90;;;;;;4955062;28;19977;-80
2022/01/01 01:04:27;;;;;;;;;;;11.80;99.90;;;;;;4956648;29;19927;-79
2022/01/01 01:06:54;;;;;;;;;;;11.80;99.90;;;;;;4958715;28;20005;-80
2022/01/01 01:09:21;;;;;;;;;;;11.90;99.90;;;;;;4961186;29;19927;-79
2022/01/01 01:11:51;;;;;;;;;;;11.70;99.90;;;;;;4964174;28;19989;-80
2022/01/01 01:14:23;;;;;;;;;;;11.90;99.90;;;;;;4966479;28;20025;-80
2022/01/01 01:16:50;;;;;;;;;;;11.80;99.90;;;;;;4962985;29;19926;-80
2022/01/01 01:19:17;;;;;;;;;;;11.70;99.90;;;;;;4960906;28;19926;-80
2022/01/01 01:21:44;;;;;;;;;;;11.80;99.90;;;;;;4960520;29;19926;-79
2022/01/01 01:24:13;;;;;;;;;;;11.80;99.90;;;;;;4960675;28;19927;-80
2022/01/01 01:26:46;;;;;;;;;;;11.80;99.90;;;;;;4960380;29;19933;-80
2022/01/01 01:29:13;;;;;;;;;;;11.70;99.90;;;;;;4960105;28;19927;-80
2022/01/01 01:31:39;;;;;;;;;;;11.80;99.90;;;;;;4961141;28;19976;-80
2022/01/01 01:34:06;;;;;;;;;;;11.70;99.90;;;;;;4960285;29;19926;-81
2022/01/01 01:36:33;;;;;;;;;;;11.70;99.90;;;;;;4960029;28;19927;-81
2022/01/01 01:38:59;;;;;;;;;;;11.70;99.90;;;;;;4962022;28;19933;-79
2022/01/01 01:41:30;;;;;;;;;;;11.70;99.90;;;;;;4960306;28;19933;-79
2022/01/01 01:43:57;;;;;;;;;;;11.90;99.90;;;;;;4960112;29;19934;-79
2022/01/01 01:46:25;;;;;;;;;;;11.70;99.90;;;;;;4960370;28;19926;-79
2022/01/01 01:48:51;;;;;;;;;;;11.80;99.90;;;;;;4960601;29;19933;-79
2022/01/01 01:51:18;;;;;;;;;;;11.70;99.90;;;;;;4960197;29;19969;-79
2022/01/01 01:53:44;;;;;;;;;;;11.80;99.90;;;;;;4959822;28;19930;-79
2022/01/01 01:56:11;;;;;;;;;;;11.80;99.90;;;;;;4960053;28;19934;-79
2022/01/01 01:58:39;;;;;;;;;;;11.70;99.90;;;;;;4959795;28;19962;-79
2022/01/01 02:01:20;;;;;;;;;;;11.70;99.90;;;;;;4960433;28;19981;-79
2022/01/01 02:03:47;;;;;;;;;;;11.70;99.90;;;;;;4965315;29;19954;-79
2022/01/01 02:06:14;;;;;;;;;;;11.70;99.90;;;;;;4970044;29;19931;-79
2022/01/01 02:08:41;;;;;;;;;;;11.70;99.90;;;;;;4968410;29;19927;-77
2022/01/01 02:11:07;;;;;;;;;;;11.70;99.90;;;;;;4966822;28;20378;-78
2022/01/01 02:13:39;;;;;;;;;;;11.70;99.90;;;;;;4965429;28;19949;-79
2022/01/01 02:18:55;;;;;;;;;;;11.70;99.90;;;;;;4963587;28;19926;-79
2022/01/01 02:21:23;;;;;;;;;;;11.60;99.90;;;;;;4968262;28;19927;-79
2022/01/01 02:23:56;;;;;;;;;;;11.60;99.90;;;;;;4967635;28;19977;-79
2022/01/01 02:26:27;;;;;;;;;;;11.70;99.90;;;;;;4966528;29;20396;-80
2022/01/01 02:28:54;;;;;;;;;;;11.70;99.90;;;;;;4963326;28;19937;-79
2022/01/01 02:31:20;;;;;;;;;;;11.70;99.90;;;;;;4961017;28;19933;-79
2022/01/01 02:33:47;;;;;;;;;;;11.60;99.90;;;;;;4960733;28;19949;-79
2022/01/01 02:36:14;;;;;;;;;;;11.60;99.90;;;;;;4960742;28;19969;-79
2022/01/01 02:38:42;;;;;;;;;;;11.70;99.90;;;;;;4959612;29;19927;-81
2022/01/01 02:41:08;;;;;;;;;;;11.60;99.90;;;;;;4959229;29;19973;-81
2022/01/01 02:43:44;;;;;;;;;;;11.60;99.90;;;;;;4959881;28;19965;-79
2022/01/01 02:46:11;;;;;;;;;;;11.60;99.90;;;;;;4961136;28;19972;-80
2022/01/01 02:48:37;;;;;;;;;;;11.60;99.90;;;;;;4969221;28;19946;-79
2022/01/01 02:51:05;;;;;;;;;;;11.60;99.90;;;;;;4964336;29;19969;-80
2022/01/01 02:53:31;;;;;;;;;;;11.60;99.90;;;;;;4962472;28;19970;-80
2022/01/01 02:55:59;;;;;;;;;;;11.60;99.90;;;;;;4962132;28;19952;-81
2022/01/01 02:58:25;;;;;;;;;;;11.60;99.90;;;;;;4962113;29;19972;-80
2022/01/01 03:00:52;;;;;;;;;;;11.60;99.90;;;;;;4962436;29;19976;-80
2022/01/01 03:03:18;;;;;;;;;;;11.60;99.90;;;;;;4961860;29;19927;-80
2022/01/01 03:05:45;;;;;;;;;;;11.40;99.90;;;;;;4961779;28;19966;-80
2022/01/01 03:08:11;;;;;;;;;;;11.60;99.90;;;;;;4962256;28;19927;-80
2022/01/01 03:10:38;;;;;;;;;;;11.50;99.90;;;;;;4961395;29;19931;-79
2022/01/01 03:13:05;;;;;;;;;;;11.60;99.90;;;;;;4962008;29;19934;-79
2022/01/01 03:15:32;;;;;;;;;;;11.60;99.90;;;;;;4962173;29;19997;-79
2022/01/01 03:18:00;;;;;;;;;;;11.60;99.90;;;;;;4962334;28;19926;-80
2022/01/01 03:20:26;;;;;;;;;;;11.60;99.90;;;;;;4962413;28;19930;-80
2022/01/01 03:22:53;;;;;;;;;;;11.60;99.90;;;;;;4966829;29;19926;-80
2022/01/01 03:25:19;;;;;;;;;;;11.50;99.90;;;;;;4967282;29;19949;-78
2022/01/01 03:27:46;;;;;;;;;;;11.50;99.90;;;;;;4969236;28;19926;-79
2022/01/01 03:30:13;;;;;;;;;;;11.60;99.90;;;;;;4964540;28;19961;-79
2022/01/01 03:32:40;;;;;;;;;;;11.60;99.90;;;;;;4962149;28;19965;-80
2022/01/01 03:35:06;;;;;;;;;;;11.60;99.90;;;;;;4962670;29;19965;-82
2022/01/01 03:37:33;;;;;;;;;;;11.60;99.90;;;;;;4965810;29;19926;-79
2022/01/01 03:39:59;;;;;;;;;;;11.60;99.90;;;;;;4956659;29;19926;-79
2022/01/01 03:42:26;;;;;;;;;;;11.60;99.90;;;;;;4956697;28;19970;-79
2022/01/01 03:44:52;;;;;;;;;;;11.60;99.90;;;;;;4960235;28;19926;-78
2022/01/01 03:47:20;;;;;;;;;;;11.60;99.90;;;;;;4961523;28;19934;-79
2022/01/01 03:49:47;;;;;;;;;;;11.60;99.90;;;;;;4959423;28;19938;-80
2022/01/01 03:52:13;;;;;;;;;;;11.60;99.90;;;;;;4962018;28;19926;-80
2022/01/01 03:54:40;;;;;;;;;;;11.60;99.90;;;;;;4960809;28;19976;-80
2022/01/01 03:57:06;;;;;;;;;;;11.70;99.90;;;;;;4960283;29;19930;-81
2022/01/01 03:59:33;;;;;;;;;;;11.60;99.90;;;;;;4960463;28;19926;-81
2022/01/01 04:01:59;;;;;;;;;;;11.60;99.90;;;;;;4961245;29;19981;-80
2022/01/01 04:04:27;;;;;;;;;;;11.60;99.90;;;;;;4963817;29;19942;-81
2022/01/01 04:06:54;;;;;;;;;;;11.60;99.90;;;;;;4969506;29;19965;-81
2022/01/01 04:09:20;;;;;;;;;;;11.60;99.90;;;;;;4964074;28;19926;-81
2022/01/01 04:11:47;;;;;;;;;;;11.60;99.90;;;;;;4965805;28;20036;-79
2022/01/01 04:14:15;;;;;;;;;;;11.70;99.90;;;;;;4972954;29;19927;-79
2022/01/01 04:16:42;;;;;;;;;;;11.70;99.90;;;;;;4969519;29;19933;-80
2022/01/01 04:19:09;;;;;;;;;;;11.70;99.90;;;;;;4970096;28;19937;-80
2022/01/01 04:21:37;;;;;;;;;;;11.70;99.90;;;;;;4987674;22;19926;-82
2022/01/01 04:24:04;;;;;;;;;;;11.60;99.90;;;;;;4962220;29;19969;-82
2022/01/01 04:26:30;;;;;;;;;;;11.70;99.90;;;;;;4961358;29;19927;-81
2022/01/01 04:28:57;;;;;;;;;;;11.60;99.90;;;;;;4961240;29;20045;-82
2022/01/01 04:31:23;;;;;;;;;;;11.60;99.90;;;;;;4960242;29;19976;-81
2022/01/01 04:33:50;;;;;;;;;;;11.60;99.90;;;;;;4959526;28;19926;-81
2022/01/01 04:36:16;;;;;;;;;;;11.60;99.90;;;;;;4959133;29;19931;-81
2022/01/01 04:38:45;;;;;;;;;;;11.70;99.90;;;;;;4960811;29;19926;-82
2022/01/01 04:41:12;;;;;;;;;;;11.50;99.90;;;;;;4972887;28;19926;-82
2022/01/01 04:43:40;;;;;;;;;;;11.60;99.90;;;;;;4977677;28;19946;-83
2022/01/01 04:46:07;;;;;;;;;;;11.70;99.90;;;;;;4977996;28;19955;-83
2022/01/01 04:48:36;;;;;;;;;;;11.70;99.90;;;;;;4978477;28;19915;-84
2022/01/01 04:51:06;;;;;;;;;;;11.70;99.90;;;;;;4978941;28;19911;-83
2022/01/01 04:53:33;;;;;;;;;;;11.70;99.90;;;;;;4978897;28;19915;-83
2022/01/01 04:56:05;;;;;;;;;;;11.70;99.90;;;;;;4978847;28;19911;-83
2022/01/01 04:58:32;;;;;;;;;;;11.40;99.90;;;;;;4971661;28;19930;-82
2022/01/01 05:00:58;;;;;;;;;;;11.60;99.90;;;;;;4958274;29;20353;-81
2022/01/01 05:03:25;;;;;;;;;;;11.60;99.90;;;;;;4962245;28;19927;-81
2022/01/01 05:05:51;;;;;;;;;;;11.70;99.90;;;;;;4973892;28;19914;-82
2022/01/01 05:08:18;;;;;;;;;;;11.70;99.90;;;;;;4975647;28;19934;-81
2022/01/01 05:10:44;;;;;;;;;;;11.50;99.90;;;;;;4971348;29;19938;-81
2022/01/01 05:13:13;;;;;;;;;;;11.50;99.90;;;;;;4973520;28;19949;-82
2022/01/01 05:15:40;;;;;;;;;;;11.50;99.90;;;;;;4973935;28;19934;-82
2022/01/01 05:18:06;;;;;;;;;;;11.50;99.90;;;;;;4971124;28;19926;-82
2022/01/01 05:20:33;;;;;;;;;;;11.50;99.90;;;;;;4972716;28;19933;-82
2022/01/01 05:22:59;;;;;;;;;;;11.50;99.90;;;;;;4978367;28;19927;-81
2022/01/01 05:25:26;;;;;;;;;;;11.50;99.90;;;;;;4968651;29;19949;-81
2022/01/01 05:27:52;;;;;;;;;;;11.60;99.90;;;;;;4964554;29;19933;-82
2022/01/01 05:30:20;;;;;;;;;;;11.50;99.90;;;;;;4960644;28;19926;-81
2022/01/01 05:32:46;;;;;;;;;;;11.60;99.90;;;;;;4959515;28;20364;-81
2022/01/01 05:35:13;;;;;;;;;;;11.50;99.90;;;;;;4958553;28;19926;-81
2022/01/01 05:37:39;;;;;;;;;;;11.50;99.90;;;;;;4958632;28;19972;-81
2022/01/01 05:40:06;;;;;;;;;;;11.50;99.90;;;;;;4957746;29;19993;-81
2022/01/01 05:42:33;;;;;;;;;;;11.50;99.90;;;;;;4959456;29;19949;-81
2022/01/01 05:44:59;;;;;;;;;;;11.50;99.90;;;;;;4958271;29;19927;-81
2022/01/01 05:47:27;;;;;;;;;;;11.50;99.90;;;;;;4956879;29;19957;-81
2022/01/01 05:49:54;;;;;;;;;;;11.50;99.90;;;;;;4960075;28;19930;-81
2022/01/01 05:52:20;;;;;;;;;;;11.50;99.90;;;;;;4967409;29;19927;-80
2022/01/01 05:54:46;;;;;;;;;;;11.50;99.90;;;;;;4975390;28;19910;-81
2022/01/01 05:57:13;;;;;;;;;;;11.60;99.90;;;;;;4960411;28;20378;-82
2022/01/01 05:59:41;;;;;;;;;;;11.60;99.90;;;;;;4960672;29;19927;-80
2022/01/01 06:02:08;;;;;;;;;;;11.60;99.90;;;;;;4966111;29;19926;-81
2022/01/01 06:04:36;;;;;;;;;;;11.60;99.90;;;;;;4960238;28;19935;-82
2022/01/01 06:07:03;;;;;;;;;;;11.50;99.90;;;;;;4959144;29;19973;-82
2022/01/01 06:09:29;;;;;;;;;;;11.60;99.90;;;;;;4957677;29;19973;-80
2022/01/01 06:11:56;;;;;;;;;;;11.50;99.90;;;;;;4958223;28;19973;-81
2022/01/01 06:14:22;;;;;;;;;;;11.60;99.90;;;;;;4957157;28;20305;-81
2022/01/01 06:16:49;;;;;;;;;;;11.60;99.90;;;;;;4957377;29;19974;-80
2022/01/01 06:19:15;;;;;;;;;;;11.60;99.90;;;;;;4958040;28;19927;-82
2022/01/01 06:21:43;;;;;;;;;;;11.60;99.90;;;;;;4966161;28;19927;-81
2022/01/01 06:24:10;;;;;;;;;;;11.50;99.90;;;;;;4966060;28;19927;-81
2022/01/01 06:26:36;;;;;;;;;;;11.60;99.90;;;;;;4962314;29;19969;-80
2022/01/01 06:29:03;;;;;;;;;;;11.60;99.90;;;;;;4965502;28;19934;-81
2022/01/01 06:31:29;;;;;;;;;;;11.60;99.90;;;;;;4964135;29;19931;-81
2022/01/01 06:33:56;;;;;;;;;;;11.50;99.90;;;;;;4962823;28;19961;-81
2022/01/01 06:36:25;;;;;;;;;;;11.60;99.90;;;;;;4962726;28;20369;-81
2022/01/01 06:38:52;;;;;;;;;;;11.60;99.90;;;;;;4960428;28;19926;-81
2022/01/01 06:41:19;;;;;;;;;;;11.60;99.90;;;;;;4960100;29;19973;-81
2022/01/01 06:43:46;;;;;;;;;;;11.70;99.90;;;;;;4968236;29;19934;-81
2022/01/01 06:46:12;;;;;;;;;;;11.70;99.90;;;;;;4971444;28;19927;-81
2022/01/01 06:48:39;;;;;;;;;;;11.60;99.90;;;;;;4972462;28;19927;-81
2022/01/01 06:51:05;;;;;;;;;;;11.70;99.90;;;;;;4975331;28;19915;-81
2022/01/01 06:53:31;;;;;;;;;;;11.70;99.90;;;;;;4973781;28;19927;-80
2022/01/01 06:56:05;;;;;;;;;;;11.70;99.90;;;;;;4968390;28;19930;-81
2022/01/01 06:58:32;;;;;;;;;;;11.70;99.90;;;;;;4972067;28;20010;-81
2022/01/01 07:00:58;;;;;;;;;;;11.70;99.90;;;;;;4971680;29;19931;-80
2022/01/01 07:03:24;;;;;;;;;;;11.60;99.90;;;;;;4972236;28;19926;-80
2022/01/01 07:05:51;;;;;;;;;;;11.60;99.90;;;;;;4970615;28;19933;-80
2022/01/01 07:08:18;;;;;;;;;;;11.70;99.90;;;;;;4967406;29;19961;-82
2022/01/01 07:10:45;;;;;;;;;;;11.70;99.90;;;;;;4964627;29;19930;-82
2022/01/01 07:13:13;;;;;;;;;;;11.70;99.90;;;;;;4964912;28;19996;-82
2022/01/01 07:15:40;;;;;;;;;;;11.60;99.90;;;;;;4965925;29;19927;-82
2022/01/01 07:18:06;;;;;;;;;;;11.70;99.90;;;;;;4970689;28;19926;-82
2022/01/01 07:20:33;;;;;;;;;;;11.60;99.90;;;;;;4963665;28;19933;-82
2022/01/01 07:22:59;;;;;;;;;;;11.60;99.90;;;;;;4962116;29;19973;-82
2022/01/01 07:25:26;;;;;;;;;;;11.70;99.90;;;;;;4961110;29;19934;-81
2022/01/01 07:27:52;;;;;;;;;;;11.70;99.90;;;;;;4960366;28;19976;-81
2022/01/01 07:30:23;;;;;;;;;;;11.60;99.90;;;;;;4959372;28;19926;-82
2022/01/01 07:32:50;;;;;;;;;;;11.60;99.90;;;;;;4959877;28;19958;-82
2022/01/01 07:35:17;;;;;;;;;;;11.60;99.90;;;;;;4958554;29;19966;-82
2022/01/01 07:37:44;;;;;;;;;;;11.70;99.90;;;;;;4958992;28;19926;-81
2022/01/01 07:40:12;;;;;;;;;;;11.60;99.90;;;;;;4959014;28;19926;-82
2022/01/01 07:42:38;;;;;;;;;;;11.70;99.90;;;;;;4960789;29;19927;-82
2022/01/01 07:45:06;;;;;;;;;;;11.70;99.90;;;;;;4972166;29;19933;-80
2022/01/01 07:47:34;;;;;;;;;;;11.70;99.90;;;;;;4970531;29;19911;-80
2022/01/01 07:50:00;;;;;;;;;;;11.70;99.90;;;;;;4970684;28;19927;-80
2022/01/01 07:52:27;;;;;;;;;;;11.70;99.90;;;;;;4968899;28;19927;-81
2022/01/01 07:54:54;;;;;;;;;;;11.70;99.90;;;;;;4966965;28;19933;-81
2022/01/01 07:57:20;;;;;;;;;;;11.70;99.90;;;;;;4966218;28;19926;-82
2022/01/01 07:59:47;;;;;;;;;;;11.70;99.90;;;;;;4965640;29;19927;-82
2022/01/01 08:02:13;;;;;;;;;;;11.70;99.90;;;;;;4962766;29;19926;-82
2022/01/01 08:04:41;;;;;;;;;;;11.70;99.90;;;;;;4962637;28;19933;-82
2022/01/01 08:07:07;;;;;;;;;;;11.70;99.90;;;;;;4962130;28;20357;-82
2022/01/01 08:09:35;;;;;;;;;;;11.70;99.90;;;;;;4962024;28;19973;-82
2022/01/01 08:12:01;;;;;;;;;;;11.70;99.90;;;;;;4960973;29;20297;-82
2022/01/01 08:14:28;;;;;;;;;;;11.70;99.90;;;;;;4961471;28;20165;-82
2022/01/01 08:16:55;;;;;;;;;;;11.70;99.90;;;;;;4964719;28;19926;-82
2022/01/01 08:19:21;;;;;;;;;;;11.90;99.90;;;;;;4975155;29;19926;-82
2022/01/01 08:21:49;;;;;;;;;;;11.70;99.90;;;;;;4973500;28;19926;-82
2022/01/01 08:24:15;;;;;;;;;;;12.30;99.90;;;;;;4973160;29;19999;-82
2022/01/01 08:26:42;;;;;;;;;;;11.70;99.90;;;;;;4970673;28;19930;-82
2022/01/01 08:29:08;;;;;;;;;;;11.80;99.90;;;;;;4971782;29;19938;-82
2022/01/01 08:31:35;;;;;;;;;;;11.70;99.90;;;;;;4971302;28;19926;-82
2022/01/01 08:34:01;;;;;;;;;;;12.30;99.90;;;;;;4974461;28;19926;-82
2022/01/01 08:36:28;;;;;;;;;;;11.80;99.90;;;;;;4972703;29;19937;-82
2022/01/01 08:38:55;;;;;;;;;;;11.80;99.90;;;;;;4973429;29;19934;-82
2022/01/01 08:41:22;;;;;;;;;;;11.80;99.90;;;;;;4972917;29;19949;-82
2022/01/01 08:43:48;;;;;;;;;;;11.80;99.90;;;;;;4966691;29;20424;-82
2022/01/01 08:46:15;;;;;;;;;;;11.90;99.90;;;;;;4961348;28;20330;-82
2022/01/01 08:48:42;;;;;;;;;;;11.90;99.90;;;;;;4963564;28;20400;-82
2022/01/01 08:51:12;;;;;;;;;;;11.80;99.90;;;;;;4962286;28;19949;-82
2022/01/01 08:53:39;;;;;;;;;;;11.90;99.90;;;;;;4960830;28;19930;-82
2022/01/01 08:56:07;;;;;;;;;;;12.00;99.90;;;;;;4960712;28;19927;-82
2022/01/01 08:58:34;;;;;;;;;;;11.90;99.90;;;;;;4960217;28;19927;-82
2022/01/01 09:01:01;;;;;;;;;;;11.90;99.90;;;;;;4959791;29;19927;-82
2022/01/01 09:03:27;;;;;;;;;;;12.00;99.90;;;;;;4959093;29;19926;-82
2022/01/01 09:05:54;;;;;;;;;;;12.00;99.90;;;;;;4960510;28;19976;-81
2022/01/01 09:08:21;;;;;;;;;;;12.00;99.90;;;;;;4959196;28;19927;-81
2022/01/01 09:10:47;;;;;;;;;;;12.00;99.90;;;;;;4959358;28;19933;-82
2022/01/01 09:13:16;;;;;;;;;;;11.50;99.90;;;;;;4959328;28;19930;-82
2022/01/01 09:15:42;;;;;;;;;;;12.00;99.90;;;;;;4959675;29;19926;-82
2022/01/01 09:18:09;;;;;;;;;;;12.00;99.90;;;;;;4969026;28;19937;-82
2022/01/01 09:20:35;;;;;;;;;;;12.00;99.90;;;;;;4962117;28;19949;-82
2022/01/01 09:23:02;;;;;;;;;;;12.00;99.90;;;;;;4967483;28;19934;-82
2022/01/01 09:25:28;;;;;;;;;;;12.10;99.90;;;;;;4972498;28;19946;-81
2022/01/01 09:27:55;;;;;;;;;;;11.80;99.90;;;;;;4968823;28;19926;-82
2022/01/01 09:30:23;;;;;;;;;;;12.10;99.90;;;;;;4969310;29;19993;-81
2022/01/01 09:32:49;;;;;;;;;;;12.10;99.90;;;;;;4966822;29;19927;-82
2022/01/01 09:35:17;;;;;;;;;;;11.30;99.90;;;;;;4970395;29;19926;-82
2022/01/01 09:37:43;;;;;;;;;;;12.10;99.90;;;;;;4968651;28;20449;-82
2022/01/01 09:40:10;;;;;;;;;;;12.10;99.90;;;;;;4969588;29;19949;-82
2022/01/01 09:42:39;;;;;;;;;;;12.10;99.90;;;;;;4965561;28;19927;-82
2022/01/01 09:45:06;;;;;;;;;;;12.10;99.90;;;;;;4960052;29;19927;-82
2022/01/01 09:47:39;;;;;;;;;;;12.10;99.90;;;;;;4960182;29;19930;-81
2022/01/01 09:50:06;;;;;;;;;;;12.10;99.90;;;;;;4964312;28;19927;-82
2022/01/01 09:52:33;;;;;;;;;;;12.10;99.90;;;;;;4965211;28;20393;-83
2022/01/01 09:55:02;;;;;;;;;;;12.10;99.90;;;;;;4961195;28;20045;-83
2022/01/01 09:57:31;;;;;;;;;;;13.70;99.90;;;;;;4959438;29;19972;-82
2022/01/01 09:59:57;;;;;;;;;;;12.10;99.90;;;;;;4962079;29;20243;-81
2022/01/01 10:02:24;;;;;;;;;;;11.70;99.90;;;;;;4960451;29;20305;-82
2022/01/01 10:04:52;;;;;;;;;;;12.10;99.90;;;;;;4962518;29;19981;-82
2022/01/01 10:07:28;;;;;;;;;;;12.10;99.90;;;;;;4961427;29;19937;-82
2022/01/01 10:09:57;;;;;;;;;;;12.10;99.90;;;;;;4960711;28;21292;-81
2022/01/01 10:12:37;;;;;;;;;;;12.10;99.90;;;;;;4961427;29;19970;-82
2022/01/01 10:15:06;;;;;;;;;;;12.30;99.90;;;;;;4960099;29;19927;-82
2022/01/01 10:17:35;;;;;;;;;;;12.20;99.90;;;;;;4960881;29;19934;-82
2022/01/01 10:20:06;;;;;;;;;;;12.20;99.90;;;;;;4961284;28;19927;-82
2022/01/01 10:22:34;;;;;;;;;;;12.10;99.90;;;;;;4968924;28;19926;-81
2022/01/01 10:27:52;;;;;;;;;;;12.20;99.90;;;;;;4965976;29;19998;-82
2022/01/01 10:30:20;;;;;;;;;;;12.20;99.90;;;;;;4963794;29;19949;-83
2022/01/01 10:32:59;;;;;;;;;;;12.20;99.90;;;;;;4968508;28;19969;-82
2022/01/01 10:35:27;;;;;;;;;;;12.20;99.90;;;;;;4967932;29;19927;-81
2022/01/01 10:37:54;;;;;;;;;;;12.10;99.90;;;;;;4962442;28;19927;-82
2022/01/01 10:40:24;;;;;;;;;;;12.20;99.90;;;;;;4960223;29;20348;-82
2022/01/01 10:42:51;;;;;;;;;;;12.20;99.90;;;;;;4961109;28;19976;-83
2022/01/01 10:45:28;;;;;;;;;;;12.30;99.90;;;;;;4960842;29;19926;-82
2022/01/01 10:48:04;;;;;;;;;;;12.30;99.90;;;;;;4960398;29;20297;-82
2022/01/01 10:50:33;;;;;;;;;;;12.30;99.90;;;;;;4960518;28;20028;-81
2022/01/01 10:53:09;;;;;;;;;;;12.00;99.90;;;;;;4964162;28;20389;-82
2022/01/01 10:55:40;;;;;;;;;;;12.10;99.90;;;;;;4966431;29;19927;-81
2022/01/01 10:58:06;;;;;;;;;;;12.30;99.90;;;;;;4970523;29;19933;-82
2022/01/01 11:00:39;;;;;;;;;;;12.40;99.90;;;;;;4974295;28;19922;-83
2022/01/01 11:03:08;;;;;;;;;;;12.40;99.90;;;;;;4960753;29;19942;-81
2022/01/01 11:05:37;;;;;;;;;;;12.40;99.90;;;;;;4966076;29;19926;-82
2022/01/01 11:08:04;;;;;;;;;;;12.40;99.90;;;;;;4963167;29;19926;-81
2022/01/01 11:10:31;;;;;;;;;;;12.50;99.90;;;;;;4961470;29;19926;-82
2022/01/01 11:12:59;;;;;;;;;;;12.50;99.90;;;;;;4962932;29;20278;-83
2022/01/01 11:15:26;;;;;;;;;;;12.50;99.90;;;;;;4962078;29;20021;-83
2022/01/01 11:17:52;;;;;;;;;;;12.50;99.90;;;;;;4966144;29;19927;-81
2022/01/01 11:20:20;;;;;;;;;;;12.50;99.90;;;;;;4970752;28;20435;-82
2022/01/01 11:22:48;;;;;;;;;;;12.20;99.90;;;;;;4962414;28;19927;-82
2022/01/01 11:25:14;;;;;;;;;;;12.60;99.90;;;;;;4961629;29;20364;-82
2022/01/01 11:27:41;;;;;;;;;;;12.60;99.90;;;;;;4963903;28;19934;-81
2022/01/01 11:30:11;;;;;;;;;;;12.50;99.90;;;;;;4975349;29;19934;-81
2022/01/01 11:32:40;;;;;;;;;;;12.60;99.90;;;;;;4976125;29;20010;-81
2022/01/01 11:35:09;;;;;;;;;;;12.60;99.90;;;;;;4977401;28;19926;-81
2022/01/01 11:37:44;;;;;;;;;;;12.60;99.90;;;;;;4976925;28;19937;-81
2022/01/01 11:40:16;;;;;;;;;;;12.60;99.90;;;;;;4976773;29;19949;-81
2022/01/01 11:42:44;;;;;;;;;;;12.50;99.90;;;;;;4968441;28;20389;-81
2022/01/01 11:45:10;;;;;;;;;;;12.60;99.90;;;;;;4967245;29;19926;-81
2022/01/01 11:47:37;;;;;;;;;;;12.60;99.90;;;;;;4966275;29;19927;-81
2022/01/01 11:50:05;;;;;;;;;;;12.60;99.90;;;;;;4966582;28;19934;-82
2022/01/01 11:52:36;;;;;;;;;;;12.70;99.90;;;;;;4968836;29;20005;-81
2022/01/01 11:55:04;;;;;;;;;;;12.70;99.90;;;;;;4966447;28;19926;-82
2022/01/01 11:57:32;;;;;;;;;;;12.80;99.90;;;;;;4963246;29;19927;-81
2022/01/01 12:00:02;;;;;;;;;;;12.90;99.90;;;;;;4962052;29;20308;-81
2022/01/01 12:02:30;;;;;;;;;;;12.90;99.90;;;;;;4961722;29;19931;-81
2022/01/01 12:05:07;;;;;;;;;;;13.00;99.90;;;;;;4962163;28;19926;-80
2022/01/01 12:07:42;;;;;;;;;;;12.90;99.90;;;;;;4964154;29;19926;-81
2022/01/01 12:10:13;;;;;;;;;;;12.60;99.90;;;;;;4968436;29;19926;-81
2022/01/01 12:12:43;;;;;;;;;;;12.80;99.90;;;;;;4970778;29;19934;-81
2022/01/01 12:15:10;;;;;;;;;;;12.80;99.90;;;;;;4970612;28;19982;-81
2022/01/01 12:17:40;;;;;;;;;;;12.30;99.90;;;;;;4969763;29;19926;-82
2022/01/01 12:20:08;;;;;;;;;;;13.00;99.90;;;;;;4969950;28;19976;-82
2022/01/01 12:22:36;;;;;;;;;;;12.90;99.90;;;;;;4971264;28;19934;-82
2022/01/01 12:25:03;;;;;;;;;;;12.90;99.90;;;;;;4967491;28;19926;-83
2022/01/01 12:27:40;;;;;;;;;;;12.80;99.90;;;;;;4966462;28;19930;-82
2022/01/01 12:30:08;;;;;;;;;;;12.50;99.90;;;;;;4965761;29;19934;-81
2022/01/01 12:32:39;;;;;;;;;;;12.80;99.90;;;;;;4965405;29;20290;-81
2022/01/01 12:35:06;;;;;;;;;;;12.80;99.90;;;;;;4963858;29;19933;-81
2022/01/01 12:37:35;;;;;;;;;;;12.70;99.90;;;;;;4958321;28;19957;-81
2022/01/01 12:40:02;;;;;;;;;;;12.70;99.90;;;;;;4959115;28;19949;-81
2022/01/01 12:42:30;;;;;;;;;;;12.80;99.90;;;;;;4963803;28;19937;-81
2022/01/01 12:44:58;;;;;;;;;;;12.80;99.90;;;;;;4967144;28;19994;-82
2022/01/01 12:47:27;;;;;;;;;;;12.70;99.90;;;;;;4974986;28;20435;-82
2022/01/01 12:49:53;;;;;;;;;;;12.80;99.90;;;;;;4972739;28;19926;-81
2022/01/01 12:52:22;;;;;;;;;;;12.80;99.90;;;;;;4970234;28;19931;-83
2022/01/01 12:54:50;;;;;;;;;;;12.80;99.90;;;;;;4968215;28;19927;-81
2022/01/01 12:57:17;;;;;;;;;;;12.80;99.90;;;;;;4967958;29;19927;-81
2022/01/01 12:59:47;;;;;;;;;;;12.80;99.90;;;;;;4969277;28;19930;-83
2022/01/01 13:02:15;;;;;;;;;;;12.80;99.90;;;;;;4972128;28;19977;-81
2022/01/01 13:04:43;;;;;;;;;;;13.10;99.90;;;;;;4971971;29;20388;-81
2022/01/01 13:07:10;;;;;;;;;;;13.40;99.90;;;;;;4968231;28;19930;-81
2022/01/01 13:09:37;;;;;;;;;;;12.70;99.90;;;;;;4964880;29;20305;-81
2022/01/01 13:12:05;;;;;;;;;;;12.80;99.90;;;;;;4964994;28;19931;-82
2022/01/01 13:14:32;;;;;;;;;;;12.80;99.90;;;;;;4963684;29;20323;-82
2022/01/01 13:16:59;;;;;;;;;;;12.80;99.90;;;;;;4962658;28;19961;-81
2022/01/01 13:19:25;;;;;;;;;;;12.70;99.90;;;;;;4960073;29;19965;-82
2022/01/01 13:21:54;;;;;;;;;;;12.70;99.90;;;;;;4958930;28;20364;-82
2022/01/01 13:24:23;;;;;;;;;;;12.70;99.90;;;;;;4959163;28;19976;-81
2022/01/01 13:26:50;;;;;;;;;;;12.70;99.90;;;;;;4958474;29;20021;-81
2022/01/01 13:29:17;;;;;;;;;;;12.70;99.90;;;;;;4959792;28;20357;-81
2022/01/01 13:31:44;;;;;;;;;;;12.60;99.90;;;;;;4958939;28;20443;-81
2022/01/01 13:34:11;;;;;;;;;;;12.60;99.90;;;;;;4958581;29;19949;-81
2022/01/01 13:36:39;;;;;;;;;;;12.60;99.90;;;;;;4960008;28;20393;-81
2022/01/01 13:39:07;;;;;;;;;;;12.60;99.90;;;;;;4959591;29;20041;-81
2022/01/01 13:41:37;;;;;;;;;;;12.60;99.90;;;;;;4964769;29;19926;-80
2022/01/01 13:44:20;;;;;;;;;;;12.60;99.90;;;;;;4976304;28;19917;-81
2022/01/01 13:46:48;;;;;;;;;;;12.60;99.90;;;;;;4971262;28;19997;-82
2022/01/01 13:49:14;;;;;;;;;;;12.60;99.90;;;;;;4967790;29;19934;-82
2022/01/01 13:51:41;;;;;;;;;;;12.60;99.90;;;;;;4966600;29;19927;-82
2022/01/01 13:54:11;;;;;;;;;;;12.60;99.90;;;;;;4966013;29;19927;-81
2022/01/01 13:56:38;;;;;;;;;;;12.70;99.90;;;;;;4967134;28;19994;-82
2022/01/01 13:59:05;;;;;;;;;;;12.60;99.90;;;;;;4966683;28;19926;-80
2022/01/01 14:01:33;;;;;;;;;;;12.50;99.90;;;;;;4967759;29;20397;-81
2022/01/01 14:04:00;;;;;;;;;;;12.50;99.90;;;;;;4966307;29;19934;-80
2022/01/01 14:06:28;;;;;;;;;;;12.60;99.90;;;;;;4962583;29;19980;-81
2022/01/01 14:08:58;;;;;;;;;;;12.50;99.90;;;;;;4964495;29;19927;-82
2022/01/01 14:11:29;;;;;;;;;;;12.50;99.90;;;;;;4963204;28;19927;-80
2022/01/01 14:14:03;;;;;;;;;;;12.50;99.90;;;;;;4961981;29;19927;-82
2022/01/01 14:16:30;;;;;;;;;;;12.50;99.90;;;;;;4960865;29;19930;-81
2022/01/01 14:18:57;;;;;;;;;;;12.50;99.90;;;;;;4963460;29;20373;-82
2022/01/01 14:21:24;;;;;;;;;;;12.50;99.90;;;;;;4964703;28;19935;-82
2022/01/01 14:23:54;;;;;;;;;;;12.50;99.90;;;;;;4959949;29;19976;-81